<?xml version="1.0" encoding="UTF-8" standalone="no" ?>
<gpx xmlns="http://www.topografix.com/GPX/1/1" xmlns:xsi="http://www.w3.org/2001/XMLSchema-instance" xsi:schemaLocation="http://www.topografix.com/GPX/1/1 http://www.topografix.com/GPX/1/1/gpx.xsd" version="1.1" creator="VisuGPX - https://www.visugpx.com">
  <metadata>
    <name>Tour d\'Entre-Deux-Monts DG</name>
    <desc><![CDATA[Tour d\'entre Deux Monts jogging montée par Sous Malvaux et redescente par Rachet le 3 Août 2011]]></desc>
  </metadata>
  <trk>
    <name><![CDATA[2011-08-03T09:25:31Z]]></name>
    <trkseg>
      <trkpt lat="46.63863" lon="5.95319">
        <ele>745.6396484</ele>
        <time>2011-08-03T09:25:35Z</time>
      </trkpt>
      <trkpt lat="46.63868" lon="5.95334">
        <ele>744.1977539</ele>
        <time>2011-08-03T09:25:39Z</time>
      </trkpt>
      <trkpt lat="46.63868" lon="5.95338">
        <ele>743.717041</ele>
        <time>2011-08-03T09:25:40Z</time>
      </trkpt>
      <trkpt lat="46.63874" lon="5.9536">
        <ele>744.6782227</ele>
        <time>2011-08-03T09:25:46Z</time>
      </trkpt>
      <trkpt lat="46.63882" lon="5.95382">
        <ele>744.6782227</ele>
        <time>2011-08-03T09:25:52Z</time>
      </trkpt>
      <trkpt lat="46.63888" lon="5.95397">
        <ele>744.1977539</ele>
        <time>2011-08-03T09:25:56Z</time>
      </trkpt>
      <trkpt lat="46.63891" lon="5.95409">
        <ele>743.717041</ele>
        <time>2011-08-03T09:25:59Z</time>
      </trkpt>
      <trkpt lat="46.63899" lon="5.95435">
        <ele>740.8330078</ele>
        <time>2011-08-03T09:26:06Z</time>
      </trkpt>
      <trkpt lat="46.63903" lon="5.95449">
        <ele>741.3137207</ele>
        <time>2011-08-03T09:26:10Z</time>
      </trkpt>
      <trkpt lat="46.63906" lon="5.95466">
        <ele>742.2751465</ele>
        <time>2011-08-03T09:26:14Z</time>
      </trkpt>
      <trkpt lat="46.63906" lon="5.95479">
        <ele>745.1589355</ele>
        <time>2011-08-03T09:26:17Z</time>
      </trkpt>
      <trkpt lat="46.63911" lon="5.95499">
        <ele>747.081543</ele>
        <time>2011-08-03T09:26:22Z</time>
      </trkpt>
      <trkpt lat="46.63914" lon="5.95519">
        <ele>747.5622559</ele>
        <time>2011-08-03T09:26:27Z</time>
      </trkpt>
      <trkpt lat="46.63909" lon="5.95542">
        <ele>749.0043945</ele>
        <time>2011-08-03T09:26:33Z</time>
      </trkpt>
      <trkpt lat="46.63896" lon="5.95555">
        <ele>749.0043945</ele>
        <time>2011-08-03T09:26:38Z</time>
      </trkpt>
      <trkpt lat="46.63881" lon="5.95562">
        <ele>748.0432129</ele>
        <time>2011-08-03T09:26:43Z</time>
      </trkpt>
      <trkpt lat="46.63867" lon="5.95567">
        <ele>748.0432129</ele>
        <time>2011-08-03T09:26:48Z</time>
      </trkpt>
      <trkpt lat="46.63856" lon="5.95574">
        <ele>747.081543</ele>
        <time>2011-08-03T09:26:52Z</time>
      </trkpt>
      <trkpt lat="46.63842" lon="5.95586">
        <ele>746.6010742</ele>
        <time>2011-08-03T09:26:57Z</time>
      </trkpt>
      <trkpt lat="46.63829" lon="5.95593">
        <ele>747.081543</ele>
        <time>2011-08-03T09:27:02Z</time>
      </trkpt>
      <trkpt lat="46.63815" lon="5.956">
        <ele>745.6396484</ele>
        <time>2011-08-03T09:27:07Z</time>
      </trkpt>
      <trkpt lat="46.63805" lon="5.95612">
        <ele>747.081543</ele>
        <time>2011-08-03T09:27:13Z</time>
      </trkpt>
      <trkpt lat="46.63797" lon="5.95626">
        <ele>749.0043945</ele>
        <time>2011-08-03T09:27:18Z</time>
      </trkpt>
      <trkpt lat="46.63794" lon="5.95637">
        <ele>753.8110352</ele>
        <time>2011-08-03T09:27:21Z</time>
      </trkpt>
      <trkpt lat="46.63786" lon="5.95658">
        <ele>765.8276367</ele>
        <time>2011-08-03T09:27:27Z</time>
      </trkpt>
      <trkpt lat="46.63779" lon="5.9568">
        <ele>774.479248</ele>
        <time>2011-08-03T09:27:33Z</time>
      </trkpt>
      <trkpt lat="46.63776" lon="5.95695">
        <ele>776.4018555</ele>
        <time>2011-08-03T09:27:38Z</time>
      </trkpt>
      <trkpt lat="46.63774" lon="5.95709">
        <ele>777.3632813</ele>
        <time>2011-08-03T09:27:42Z</time>
      </trkpt>
      <trkpt lat="46.63776" lon="5.9573">
        <ele>782.6506348</ele>
        <time>2011-08-03T09:27:47Z</time>
      </trkpt>
      <trkpt lat="46.63778" lon="5.95744">
        <ele>787.4570313</ele>
        <time>2011-08-03T09:27:51Z</time>
      </trkpt>
      <trkpt lat="46.63785" lon="5.9577">
        <ele>802.8381348</ele>
        <time>2011-08-03T09:27:56Z</time>
      </trkpt>
      <trkpt lat="46.63789" lon="5.95794">
        <ele>815.3354492</ele>
        <time>2011-08-03T09:28:01Z</time>
      </trkpt>
      <trkpt lat="46.63793" lon="5.95813">
        <ele>823.5065918</ele>
        <time>2011-08-03T09:28:05Z</time>
      </trkpt>
      <trkpt lat="46.63795" lon="5.95832">
        <ele>826.3903809</ele>
        <time>2011-08-03T09:28:10Z</time>
      </trkpt>
      <trkpt lat="46.63795" lon="5.95846">
        <ele>823.9870605</ele>
        <time>2011-08-03T09:28:14Z</time>
      </trkpt>
      <trkpt lat="46.63798" lon="5.95862">
        <ele>819.661377</ele>
        <time>2011-08-03T09:28:19Z</time>
      </trkpt>
      <trkpt lat="46.63801" lon="5.95877">
        <ele>804.7607422</ele>
        <time>2011-08-03T09:28:25Z</time>
      </trkpt>
      <trkpt lat="46.63803" lon="5.95883">
        <ele>801.8769531</ele>
        <time>2011-08-03T09:28:27Z</time>
      </trkpt>
      <trkpt lat="46.63803" lon="5.95891">
        <ele>791.3022461</ele>
        <time>2011-08-03T09:28:31Z</time>
      </trkpt>
      <trkpt lat="46.63803" lon="5.95894">
        <ele>785.0539551</ele>
        <time>2011-08-03T09:28:33Z</time>
      </trkpt>
      <trkpt lat="46.63805" lon="5.95899">
        <ele>772.0759277</ele>
        <time>2011-08-03T09:28:37Z</time>
      </trkpt>
      <trkpt lat="46.63809" lon="5.9591">
        <ele>760.0593262</ele>
        <time>2011-08-03T09:28:42Z</time>
      </trkpt>
      <trkpt lat="46.63809" lon="5.95921">
        <ele>753.3303223</ele>
        <time>2011-08-03T09:28:46Z</time>
      </trkpt>
      <trkpt lat="46.6381" lon="5.95937">
        <ele>746.6010742</ele>
        <time>2011-08-03T09:28:51Z</time>
      </trkpt>
      <trkpt lat="46.63807" lon="5.95953">
        <ele>745.1589355</ele>
        <time>2011-08-03T09:28:56Z</time>
      </trkpt>
      <trkpt lat="46.63805" lon="5.95967">
        <ele>746.1203613</ele>
        <time>2011-08-03T09:29:00Z</time>
      </trkpt>
      <trkpt lat="46.63804" lon="5.9597">
        <ele>745.6396484</ele>
        <time>2011-08-03T09:29:01Z</time>
      </trkpt>
      <trkpt lat="46.63803" lon="5.95977">
        <ele>745.1589355</ele>
        <time>2011-08-03T09:29:03Z</time>
      </trkpt>
      <trkpt lat="46.63798" lon="5.95999">
        <ele>743.2363281</ele>
        <time>2011-08-03T09:29:09Z</time>
      </trkpt>
      <trkpt lat="46.63795" lon="5.96014">
        <ele>739.8718262</ele>
        <time>2011-08-03T09:29:13Z</time>
      </trkpt>
      <trkpt lat="46.63797" lon="5.96033">
        <ele>745.1589355</ele>
        <time>2011-08-03T09:29:17Z</time>
      </trkpt>
      <trkpt lat="46.638" lon="5.96056">
        <ele>755.7336426</ele>
        <time>2011-08-03T09:29:22Z</time>
      </trkpt>
      <trkpt lat="46.63801" lon="5.96072">
        <ele>758.6174316</ele>
        <time>2011-08-03T09:29:26Z</time>
      </trkpt>
      <trkpt lat="46.63802" lon="5.96091">
        <ele>762.9433594</ele>
        <time>2011-08-03T09:29:31Z</time>
      </trkpt>
      <trkpt lat="46.63802" lon="5.96113">
        <ele>768.2307129</ele>
        <time>2011-08-03T09:29:36Z</time>
      </trkpt>
      <trkpt lat="46.63804" lon="5.96132">
        <ele>769.1921387</ele>
        <time>2011-08-03T09:29:41Z</time>
      </trkpt>
      <trkpt lat="46.63803" lon="5.96139">
        <ele>768.7114258</ele>
        <time>2011-08-03T09:29:43Z</time>
      </trkpt>
      <trkpt lat="46.63804" lon="5.9616">
        <ele>768.7114258</ele>
        <time>2011-08-03T09:29:48Z</time>
      </trkpt>
      <trkpt lat="46.63812" lon="5.9619">
        <ele>783.6118164</ele>
        <time>2011-08-03T09:29:54Z</time>
      </trkpt>
      <trkpt lat="46.63815" lon="5.96208">
        <ele>790.8215332</ele>
        <time>2011-08-03T09:29:58Z</time>
      </trkpt>
      <trkpt lat="46.63813" lon="5.96232">
        <ele>800.4350586</ele>
        <time>2011-08-03T09:30:03Z</time>
      </trkpt>
      <trkpt lat="46.63818" lon="5.96253">
        <ele>808.1254883</ele>
        <time>2011-08-03T09:30:07Z</time>
      </trkpt>
      <trkpt lat="46.63824" lon="5.96271">
        <ele>821.1032715</ele>
        <time>2011-08-03T09:30:10Z</time>
      </trkpt>
      <trkpt lat="46.63827" lon="5.9629">
        <ele>826.3903809</ele>
        <time>2011-08-03T09:30:14Z</time>
      </trkpt>
      <trkpt lat="46.63825" lon="5.9631">
        <ele>828.7939453</ele>
        <time>2011-08-03T09:30:19Z</time>
      </trkpt>
      <trkpt lat="46.6382" lon="5.96318">
        <ele>825.4289551</ele>
        <time>2011-08-03T09:30:22Z</time>
      </trkpt>
      <trkpt lat="46.63822" lon="5.96331">
        <ele>816.7773438</ele>
        <time>2011-08-03T09:30:27Z</time>
      </trkpt>
      <trkpt lat="46.63823" lon="5.96346">
        <ele>808.605957</ele>
        <time>2011-08-03T09:30:32Z</time>
      </trkpt>
      <trkpt lat="46.63827" lon="5.96371">
        <ele>818.6999512</ele>
        <time>2011-08-03T09:30:38Z</time>
      </trkpt>
      <trkpt lat="46.63822" lon="5.9638">
        <ele>811.4899902</ele>
        <time>2011-08-03T09:30:42Z</time>
      </trkpt>
      <trkpt lat="46.63821" lon="5.96384">
        <ele>805.722168</ele>
        <time>2011-08-03T09:30:44Z</time>
      </trkpt>
      <trkpt lat="46.63822" lon="5.96389">
        <ele>804.2802734</ele>
        <time>2011-08-03T09:30:46Z</time>
      </trkpt>
      <trkpt lat="46.63823" lon="5.96404">
        <ele>805.2414551</ele>
        <time>2011-08-03T09:30:51Z</time>
      </trkpt>
      <trkpt lat="46.63823" lon="5.96417">
        <ele>798.0317383</ele>
        <time>2011-08-03T09:30:56Z</time>
      </trkpt>
      <trkpt lat="46.63818" lon="5.96428">
        <ele>786.4958496</ele>
        <time>2011-08-03T09:31:01Z</time>
      </trkpt>
      <trkpt lat="46.63819" lon="5.96441">
        <ele>784.5732422</ele>
        <time>2011-08-03T09:31:05Z</time>
      </trkpt>
      <trkpt lat="46.63818" lon="5.96457">
        <ele>784.0925293</ele>
        <time>2011-08-03T09:31:10Z</time>
      </trkpt>
      <trkpt lat="46.63814" lon="5.96475">
        <ele>783.6118164</ele>
        <time>2011-08-03T09:31:16Z</time>
      </trkpt>
      <trkpt lat="46.63814" lon="5.9649">
        <ele>785.5344238</ele>
        <time>2011-08-03T09:31:20Z</time>
      </trkpt>
      <trkpt lat="46.63813" lon="5.9651">
        <ele>792.7443848</ele>
        <time>2011-08-03T09:31:25Z</time>
      </trkpt>
      <trkpt lat="46.63819" lon="5.96534">
        <ele>811.9707031</ele>
        <time>2011-08-03T09:31:29Z</time>
      </trkpt>
      <trkpt lat="46.63823" lon="5.96559">
        <ele>829.2744141</ele>
        <time>2011-08-03T09:31:34Z</time>
      </trkpt>
      <trkpt lat="46.63826" lon="5.96592">
        <ele>848.9814453</ele>
        <time>2011-08-03T09:31:41Z</time>
      </trkpt>
      <trkpt lat="46.63825" lon="5.9661">
        <ele>849.9428711</ele>
        <time>2011-08-03T09:31:47Z</time>
      </trkpt>
      <trkpt lat="46.63826" lon="5.96631">
        <ele>858.5944824</ele>
        <time>2011-08-03T09:31:52Z</time>
      </trkpt>
      <trkpt lat="46.63822" lon="5.96643">
        <ele>844.1750488</ele>
        <time>2011-08-03T09:31:58Z</time>
      </trkpt>
      <trkpt lat="46.6382" lon="5.9665">
        <ele>835.5229492</ele>
        <time>2011-08-03T09:32:02Z</time>
      </trkpt>
      <trkpt lat="46.6382" lon="5.96663">
        <ele>828.7939453</ele>
        <time>2011-08-03T09:32:07Z</time>
      </trkpt>
      <trkpt lat="46.63819" lon="5.96679">
        <ele>823.0258789</ele>
        <time>2011-08-03T09:32:13Z</time>
      </trkpt>
      <trkpt lat="46.63818" lon="5.96687">
        <ele>818.6999512</ele>
        <time>2011-08-03T09:32:17Z</time>
      </trkpt>
      <trkpt lat="46.63816" lon="5.96704">
        <ele>811.0092773</ele>
        <time>2011-08-03T09:32:23Z</time>
      </trkpt>
      <trkpt lat="46.63816" lon="5.96707">
        <ele>809.5673828</ele>
        <time>2011-08-03T09:32:24Z</time>
      </trkpt>
      <trkpt lat="46.6382" lon="5.96726">
        <ele>812.451416</ele>
        <time>2011-08-03T09:32:30Z</time>
      </trkpt>
      <trkpt lat="46.63822" lon="5.96735">
        <ele>813.8933105</ele>
        <time>2011-08-03T09:32:34Z</time>
      </trkpt>
      <trkpt lat="46.63822" lon="5.9674">
        <ele>810.5285645</ele>
        <time>2011-08-03T09:32:36Z</time>
      </trkpt>
      <trkpt lat="46.63821" lon="5.96761">
        <ele>805.2414551</ele>
        <time>2011-08-03T09:32:42Z</time>
      </trkpt>
      <trkpt lat="46.63821" lon="5.96764">
        <ele>805.722168</ele>
        <time>2011-08-03T09:32:43Z</time>
      </trkpt>
      <trkpt lat="46.63819" lon="5.96775">
        <ele>806.2026367</ele>
        <time>2011-08-03T09:32:46Z</time>
      </trkpt>
      <trkpt lat="46.63819" lon="5.96785">
        <ele>802.8381348</ele>
        <time>2011-08-03T09:32:49Z</time>
      </trkpt>
      <trkpt lat="46.63818" lon="5.96794">
        <ele>803.3188477</ele>
        <time>2011-08-03T09:32:52Z</time>
      </trkpt>
      <trkpt lat="46.63818" lon="5.96812">
        <ele>799.9543457</ele>
        <time>2011-08-03T09:32:58Z</time>
      </trkpt>
      <trkpt lat="46.63817" lon="5.96823">
        <ele>796.5898438</ele>
        <time>2011-08-03T09:33:02Z</time>
      </trkpt>
      <trkpt lat="46.6382" lon="5.96837">
        <ele>791.782959</ele>
        <time>2011-08-03T09:33:07Z</time>
      </trkpt>
      <trkpt lat="46.63821" lon="5.96845">
        <ele>787.4570313</ele>
        <time>2011-08-03T09:33:10Z</time>
      </trkpt>
      <trkpt lat="46.6383" lon="5.96871">
        <ele>805.722168</ele>
        <time>2011-08-03T09:33:15Z</time>
      </trkpt>
      <trkpt lat="46.63834" lon="5.96893">
        <ele>815.8161621</ele>
        <time>2011-08-03T09:33:20Z</time>
      </trkpt>
      <trkpt lat="46.63838" lon="5.96917">
        <ele>823.0258789</ele>
        <time>2011-08-03T09:33:25Z</time>
      </trkpt>
      <trkpt lat="46.63841" lon="5.96934">
        <ele>824.4677734</ele>
        <time>2011-08-03T09:33:29Z</time>
      </trkpt>
      <trkpt lat="46.63841" lon="5.96938">
        <ele>823.5065918</ele>
        <time>2011-08-03T09:33:30Z</time>
      </trkpt>
      <trkpt lat="46.63838" lon="5.96949">
        <ele>825.909668</ele>
        <time>2011-08-03T09:33:33Z</time>
      </trkpt>
      <trkpt lat="46.6384" lon="5.96965">
        <ele>826.8710938</ele>
        <time>2011-08-03T09:33:37Z</time>
      </trkpt>
      <trkpt lat="46.63848" lon="5.96984">
        <ele>829.2744141</ele>
        <time>2011-08-03T09:33:42Z</time>
      </trkpt>
      <trkpt lat="46.63852" lon="5.97003">
        <ele>833.1196289</ele>
        <time>2011-08-03T09:33:47Z</time>
      </trkpt>
      <trkpt lat="46.63852" lon="5.97008">
        <ele>833.6003418</ele>
        <time>2011-08-03T09:33:49Z</time>
      </trkpt>
      <trkpt lat="46.63857" lon="5.97024">
        <ele>830.7165527</ele>
        <time>2011-08-03T09:33:54Z</time>
      </trkpt>
      <trkpt lat="46.63857" lon="5.97028">
        <ele>830.2358398</ele>
        <time>2011-08-03T09:33:55Z</time>
      </trkpt>
      <trkpt lat="46.63858" lon="5.97042">
        <ele>822.545166</ele>
        <time>2011-08-03T09:34:00Z</time>
      </trkpt>
      <trkpt lat="46.63861" lon="5.97062">
        <ele>825.909668</ele>
        <time>2011-08-03T09:34:04Z</time>
      </trkpt>
      <trkpt lat="46.63864" lon="5.97086">
        <ele>828.3132324</ele>
        <time>2011-08-03T09:34:09Z</time>
      </trkpt>
      <trkpt lat="46.63865" lon="5.97107">
        <ele>830.2358398</ele>
        <time>2011-08-03T09:34:14Z</time>
      </trkpt>
      <trkpt lat="46.63865" lon="5.97115">
        <ele>827.3518066</ele>
        <time>2011-08-03T09:34:16Z</time>
      </trkpt>
      <trkpt lat="46.63865" lon="5.97128">
        <ele>819.1806641</ele>
        <time>2011-08-03T09:34:20Z</time>
      </trkpt>
      <trkpt lat="46.63865" lon="5.97135">
        <ele>815.8161621</ele>
        <time>2011-08-03T09:34:22Z</time>
      </trkpt>
      <trkpt lat="46.63871" lon="5.97154">
        <ele>811.0092773</ele>
        <time>2011-08-03T09:34:28Z</time>
      </trkpt>
      <trkpt lat="46.63873" lon="5.97159">
        <ele>806.6833496</ele>
        <time>2011-08-03T09:34:30Z</time>
      </trkpt>
      <trkpt lat="46.63876" lon="5.97176">
        <ele>798.9929199</ele>
        <time>2011-08-03T09:34:35Z</time>
      </trkpt>
      <trkpt lat="46.63881" lon="5.9719">
        <ele>798.512207</ele>
        <time>2011-08-03T09:34:39Z</time>
      </trkpt>
      <trkpt lat="46.63886" lon="5.97214">
        <ele>797.0703125</ele>
        <time>2011-08-03T09:34:45Z</time>
      </trkpt>
      <trkpt lat="46.63891" lon="5.97237">
        <ele>802.3574219</ele>
        <time>2011-08-03T09:34:50Z</time>
      </trkpt>
      <trkpt lat="46.63897" lon="5.97257">
        <ele>800.4350586</ele>
        <time>2011-08-03T09:34:55Z</time>
      </trkpt>
      <trkpt lat="46.63905" lon="5.97275">
        <ele>797.5510254</ele>
        <time>2011-08-03T09:35:00Z</time>
      </trkpt>
      <trkpt lat="46.63915" lon="5.97304">
        <ele>804.2802734</ele>
        <time>2011-08-03T09:35:06Z</time>
      </trkpt>
      <trkpt lat="46.63921" lon="5.97327">
        <ele>802.8381348</ele>
        <time>2011-08-03T09:35:11Z</time>
      </trkpt>
      <trkpt lat="46.63926" lon="5.97342">
        <ele>802.3574219</ele>
        <time>2011-08-03T09:35:15Z</time>
      </trkpt>
      <trkpt lat="46.63931" lon="5.97359">
        <ele>803.3188477</ele>
        <time>2011-08-03T09:35:19Z</time>
      </trkpt>
      <trkpt lat="46.63942" lon="5.97364">
        <ele>799.4736328</ele>
        <time>2011-08-03T09:35:24Z</time>
      </trkpt>
      <trkpt lat="46.6395" lon="5.97356">
        <ele>790.8215332</ele>
        <time>2011-08-03T09:35:28Z</time>
      </trkpt>
      <trkpt lat="46.63954" lon="5.97333">
        <ele>780.7280273</ele>
        <time>2011-08-03T09:35:33Z</time>
      </trkpt>
      <trkpt lat="46.63955" lon="5.97331">
        <ele>780.7280273</ele>
        <time>2011-08-03T09:35:34Z</time>
      </trkpt>
      <trkpt lat="46.63964" lon="5.9731">
        <ele>773.5180664</ele>
        <time>2011-08-03T09:35:40Z</time>
      </trkpt>
      <trkpt lat="46.63969" lon="5.97297">
        <ele>771.5952148</ele>
        <time>2011-08-03T09:35:44Z</time>
      </trkpt>
      <trkpt lat="46.63984" lon="5.97293">
        <ele>775.9211426</ele>
        <time>2011-08-03T09:35:50Z</time>
      </trkpt>
      <trkpt lat="46.63995" lon="5.97287">
        <ele>778.8051758</ele>
        <time>2011-08-03T09:35:55Z</time>
      </trkpt>
      <trkpt lat="46.64006" lon="5.97281">
        <ele>778.8051758</ele>
        <time>2011-08-03T09:36:00Z</time>
      </trkpt>
      <trkpt lat="46.64016" lon="5.97279">
        <ele>781.2087402</ele>
        <time>2011-08-03T09:36:04Z</time>
      </trkpt>
      <trkpt lat="46.64026" lon="5.97276">
        <ele>783.6118164</ele>
        <time>2011-08-03T09:36:08Z</time>
      </trkpt>
      <trkpt lat="46.64036" lon="5.97276">
        <ele>785.0539551</ele>
        <time>2011-08-03T09:36:12Z</time>
      </trkpt>
      <trkpt lat="46.64048" lon="5.97272">
        <ele>785.5344238</ele>
        <time>2011-08-03T09:36:17Z</time>
      </trkpt>
      <trkpt lat="46.64062" lon="5.97265">
        <ele>787.4570313</ele>
        <time>2011-08-03T09:36:23Z</time>
      </trkpt>
      <trkpt lat="46.64072" lon="5.97258">
        <ele>788.418457</ele>
        <time>2011-08-03T09:36:27Z</time>
      </trkpt>
      <trkpt lat="46.64074" lon="5.97256">
        <ele>789.3796387</ele>
        <time>2011-08-03T09:36:28Z</time>
      </trkpt>
      <trkpt lat="46.64085" lon="5.97252">
        <ele>789.3796387</ele>
        <time>2011-08-03T09:36:32Z</time>
      </trkpt>
      <trkpt lat="46.641" lon="5.97244">
        <ele>789.3796387</ele>
        <time>2011-08-03T09:36:38Z</time>
      </trkpt>
      <trkpt lat="46.64114" lon="5.97237">
        <ele>787.9377441</ele>
        <time>2011-08-03T09:36:44Z</time>
      </trkpt>
      <trkpt lat="46.64116" lon="5.97236">
        <ele>787.9377441</ele>
        <time>2011-08-03T09:36:45Z</time>
      </trkpt>
      <trkpt lat="46.64129" lon="5.97231">
        <ele>786.4958496</ele>
        <time>2011-08-03T09:36:50Z</time>
      </trkpt>
      <trkpt lat="46.64132" lon="5.97232">
        <ele>786.4958496</ele>
        <time>2011-08-03T09:36:51Z</time>
      </trkpt>
      <trkpt lat="46.64146" lon="5.97226">
        <ele>785.5344238</ele>
        <time>2011-08-03T09:36:57Z</time>
      </trkpt>
      <trkpt lat="46.64156" lon="5.97216">
        <ele>786.9763184</ele>
        <time>2011-08-03T09:37:02Z</time>
      </trkpt>
      <trkpt lat="46.64165" lon="5.97209">
        <ele>787.9377441</ele>
        <time>2011-08-03T09:37:06Z</time>
      </trkpt>
      <trkpt lat="46.64178" lon="5.97202">
        <ele>788.8991699</ele>
        <time>2011-08-03T09:37:11Z</time>
      </trkpt>
      <trkpt lat="46.64187" lon="5.97199">
        <ele>788.8991699</ele>
        <time>2011-08-03T09:37:15Z</time>
      </trkpt>
      <trkpt lat="46.64195" lon="5.97194">
        <ele>789.8603516</ele>
        <time>2011-08-03T09:37:19Z</time>
      </trkpt>
      <trkpt lat="46.64204" lon="5.97187">
        <ele>791.782959</ele>
        <time>2011-08-03T09:37:23Z</time>
      </trkpt>
      <trkpt lat="46.64214" lon="5.97178">
        <ele>792.7443848</ele>
        <time>2011-08-03T09:37:27Z</time>
      </trkpt>
      <trkpt lat="46.64227" lon="5.97171">
        <ele>791.3022461</ele>
        <time>2011-08-03T09:37:32Z</time>
      </trkpt>
      <trkpt lat="46.64241" lon="5.97167">
        <ele>790.8215332</ele>
        <time>2011-08-03T09:37:37Z</time>
      </trkpt>
      <trkpt lat="46.64254" lon="5.97161">
        <ele>792.2636719</ele>
        <time>2011-08-03T09:37:42Z</time>
      </trkpt>
      <trkpt lat="46.64263" lon="5.97154">
        <ele>792.7443848</ele>
        <time>2011-08-03T09:37:46Z</time>
      </trkpt>
      <trkpt lat="46.64271" lon="5.97146">
        <ele>795.6281738</ele>
        <time>2011-08-03T09:37:50Z</time>
      </trkpt>
      <trkpt lat="46.64271" lon="5.97138">
        <ele>796.5898438</ele>
        <time>2011-08-03T09:37:54Z</time>
      </trkpt>
      <trkpt lat="46.64264" lon="5.97116">
        <ele>795.6281738</ele>
        <time>2011-08-03T09:37:59Z</time>
      </trkpt>
      <trkpt lat="46.64258" lon="5.97093">
        <ele>794.666748</ele>
        <time>2011-08-03T09:38:04Z</time>
      </trkpt>
      <trkpt lat="46.64253" lon="5.97076">
        <ele>794.1862793</ele>
        <time>2011-08-03T09:38:08Z</time>
      </trkpt>
      <trkpt lat="46.6425" lon="5.97067">
        <ele>794.1862793</ele>
        <time>2011-08-03T09:38:10Z</time>
      </trkpt>
      <trkpt lat="46.64256" lon="5.97046">
        <ele>793.2248535</ele>
        <time>2011-08-03T09:38:15Z</time>
      </trkpt>
      <trkpt lat="46.64257" lon="5.97043">
        <ele>792.7443848</ele>
        <time>2011-08-03T09:38:16Z</time>
      </trkpt>
      <trkpt lat="46.64269" lon="5.97039">
        <ele>793.7055664</ele>
        <time>2011-08-03T09:38:21Z</time>
      </trkpt>
      <trkpt lat="46.64274" lon="5.97039">
        <ele>794.1862793</ele>
        <time>2011-08-03T09:38:23Z</time>
      </trkpt>
      <trkpt lat="46.6429" lon="5.97029">
        <ele>795.1474609</ele>
        <time>2011-08-03T09:38:29Z</time>
      </trkpt>
      <trkpt lat="46.64298" lon="5.97024">
        <ele>796.5898438</ele>
        <time>2011-08-03T09:38:33Z</time>
      </trkpt>
      <trkpt lat="46.64305" lon="5.97022">
        <ele>797.0703125</ele>
        <time>2011-08-03T09:38:36Z</time>
      </trkpt>
      <trkpt lat="46.64311" lon="5.9702">
        <ele>797.5510254</ele>
        <time>2011-08-03T09:38:39Z</time>
      </trkpt>
      <trkpt lat="46.64321" lon="5.97014">
        <ele>799.4736328</ele>
        <time>2011-08-03T09:38:45Z</time>
      </trkpt>
      <trkpt lat="46.64333" lon="5.97005">
        <ele>802.3574219</ele>
        <time>2011-08-03T09:38:51Z</time>
      </trkpt>
      <trkpt lat="46.6434" lon="5.97001">
        <ele>802.8381348</ele>
        <time>2011-08-03T09:38:55Z</time>
      </trkpt>
      <trkpt lat="46.64348" lon="5.96997">
        <ele>804.2802734</ele>
        <time>2011-08-03T09:38:59Z</time>
      </trkpt>
      <trkpt lat="46.64353" lon="5.96995">
        <ele>805.2414551</ele>
        <time>2011-08-03T09:39:02Z</time>
      </trkpt>
      <trkpt lat="46.64361" lon="5.96991">
        <ele>807.6447754</ele>
        <time>2011-08-03T09:39:07Z</time>
      </trkpt>
      <trkpt lat="46.6437" lon="5.96984">
        <ele>809.0866699</ele>
        <time>2011-08-03T09:39:11Z</time>
      </trkpt>
      <trkpt lat="46.64375" lon="5.9698">
        <ele>809.5673828</ele>
        <time>2011-08-03T09:39:13Z</time>
      </trkpt>
      <trkpt lat="46.64388" lon="5.96968">
        <ele>811.0092773</ele>
        <time>2011-08-03T09:39:19Z</time>
      </trkpt>
      <trkpt lat="46.64395" lon="5.96963">
        <ele>812.451416</ele>
        <time>2011-08-03T09:39:23Z</time>
      </trkpt>
      <trkpt lat="46.64404" lon="5.96959">
        <ele>811.4899902</ele>
        <time>2011-08-03T09:39:28Z</time>
      </trkpt>
      <trkpt lat="46.64413" lon="5.96952">
        <ele>811.4899902</ele>
        <time>2011-08-03T09:39:33Z</time>
      </trkpt>
      <trkpt lat="46.64424" lon="5.96944">
        <ele>811.0092773</ele>
        <time>2011-08-03T09:39:38Z</time>
      </trkpt>
      <trkpt lat="46.64433" lon="5.96937">
        <ele>809.5673828</ele>
        <time>2011-08-03T09:39:43Z</time>
      </trkpt>
      <trkpt lat="46.6444" lon="5.96933">
        <ele>811.0092773</ele>
        <time>2011-08-03T09:39:47Z</time>
      </trkpt>
      <trkpt lat="46.64447" lon="5.96926">
        <ele>813.4128418</ele>
        <time>2011-08-03T09:39:52Z</time>
      </trkpt>
      <trkpt lat="46.64453" lon="5.96919">
        <ele>813.8933105</ele>
        <time>2011-08-03T09:39:55Z</time>
      </trkpt>
      <trkpt lat="46.64461" lon="5.96918">
        <ele>816.7773438</ele>
        <time>2011-08-03T09:40:01Z</time>
      </trkpt>
      <trkpt lat="46.64467" lon="5.96919">
        <ele>818.2192383</ele>
        <time>2011-08-03T09:40:05Z</time>
      </trkpt>
      <trkpt lat="46.64469" lon="5.96918">
        <ele>819.661377</ele>
        <time>2011-08-03T09:40:06Z</time>
      </trkpt>
      <trkpt lat="46.64481" lon="5.96908">
        <ele>820.1418457</ele>
        <time>2011-08-03T09:40:12Z</time>
      </trkpt>
      <trkpt lat="46.64491" lon="5.96902">
        <ele>820.1418457</ele>
        <time>2011-08-03T09:40:16Z</time>
      </trkpt>
      <trkpt lat="46.64503" lon="5.96896">
        <ele>819.661377</ele>
        <time>2011-08-03T09:40:21Z</time>
      </trkpt>
      <trkpt lat="46.64517" lon="5.96893">
        <ele>819.1806641</ele>
        <time>2011-08-03T09:40:27Z</time>
      </trkpt>
      <trkpt lat="46.64528" lon="5.96894">
        <ele>820.1418457</ele>
        <time>2011-08-03T09:40:31Z</time>
      </trkpt>
      <trkpt lat="46.64534" lon="5.96896">
        <ele>819.661377</ele>
        <time>2011-08-03T09:40:33Z</time>
      </trkpt>
      <trkpt lat="46.64541" lon="5.96906">
        <ele>819.1806641</ele>
        <time>2011-08-03T09:40:37Z</time>
      </trkpt>
      <trkpt lat="46.64554" lon="5.96918">
        <ele>819.661377</ele>
        <time>2011-08-03T09:40:42Z</time>
      </trkpt>
      <trkpt lat="46.64561" lon="5.96927">
        <ele>819.661377</ele>
        <time>2011-08-03T09:40:46Z</time>
      </trkpt>
      <trkpt lat="46.6457" lon="5.96936">
        <ele>818.6999512</ele>
        <time>2011-08-03T09:40:51Z</time>
      </trkpt>
      <trkpt lat="46.64576" lon="5.96945">
        <ele>817.2580566</ele>
        <time>2011-08-03T09:40:55Z</time>
      </trkpt>
      <trkpt lat="46.64586" lon="5.9696">
        <ele>817.2580566</ele>
        <time>2011-08-03T09:41:00Z</time>
      </trkpt>
      <trkpt lat="46.646" lon="5.96972">
        <ele>817.2580566</ele>
        <time>2011-08-03T09:41:05Z</time>
      </trkpt>
      <trkpt lat="46.64613" lon="5.96985">
        <ele>817.7385254</ele>
        <time>2011-08-03T09:41:10Z</time>
      </trkpt>
      <trkpt lat="46.64626" lon="5.96997">
        <ele>816.2966309</ele>
        <time>2011-08-03T09:41:15Z</time>
      </trkpt>
      <trkpt lat="46.64632" lon="5.97005">
        <ele>813.8933105</ele>
        <time>2011-08-03T09:41:18Z</time>
      </trkpt>
      <trkpt lat="46.64644" lon="5.97017">
        <ele>811.4899902</ele>
        <time>2011-08-03T09:41:23Z</time>
      </trkpt>
      <trkpt lat="46.64653" lon="5.97029">
        <ele>808.605957</ele>
        <time>2011-08-03T09:41:27Z</time>
      </trkpt>
      <trkpt lat="46.64661" lon="5.97043">
        <ele>807.1640625</ele>
        <time>2011-08-03T09:41:31Z</time>
      </trkpt>
      <trkpt lat="46.6467" lon="5.97061">
        <ele>804.7607422</ele>
        <time>2011-08-03T09:41:36Z</time>
      </trkpt>
      <trkpt lat="46.64676" lon="5.97077">
        <ele>805.722168</ele>
        <time>2011-08-03T09:41:40Z</time>
      </trkpt>
      <trkpt lat="46.64681" lon="5.97084">
        <ele>806.2026367</ele>
        <time>2011-08-03T09:41:42Z</time>
      </trkpt>
      <trkpt lat="46.64691" lon="5.97097">
        <ele>805.2414551</ele>
        <time>2011-08-03T09:41:46Z</time>
      </trkpt>
      <trkpt lat="46.64701" lon="5.97116">
        <ele>804.7607422</ele>
        <time>2011-08-03T09:41:51Z</time>
      </trkpt>
      <trkpt lat="46.6471" lon="5.97134">
        <ele>804.2802734</ele>
        <time>2011-08-03T09:41:56Z</time>
      </trkpt>
      <trkpt lat="46.64721" lon="5.97144">
        <ele>804.2802734</ele>
        <time>2011-08-03T09:42:01Z</time>
      </trkpt>
      <trkpt lat="46.64728" lon="5.97153">
        <ele>802.3574219</ele>
        <time>2011-08-03T09:42:04Z</time>
      </trkpt>
      <trkpt lat="46.64742" lon="5.9717">
        <ele>800.4350586</ele>
        <time>2011-08-03T09:42:10Z</time>
      </trkpt>
      <trkpt lat="46.64755" lon="5.97179">
        <ele>798.512207</ele>
        <time>2011-08-03T09:42:15Z</time>
      </trkpt>
      <trkpt lat="46.64772" lon="5.97193">
        <ele>796.5898438</ele>
        <time>2011-08-03T09:42:20Z</time>
      </trkpt>
      <trkpt lat="46.64781" lon="5.97207">
        <ele>797.0703125</ele>
        <time>2011-08-03T09:42:24Z</time>
      </trkpt>
      <trkpt lat="46.64792" lon="5.97218">
        <ele>797.0703125</ele>
        <time>2011-08-03T09:42:29Z</time>
      </trkpt>
      <trkpt lat="46.64796" lon="5.97234">
        <ele>796.5898438</ele>
        <time>2011-08-03T09:42:34Z</time>
      </trkpt>
      <trkpt lat="46.648" lon="5.97245">
        <ele>798.512207</ele>
        <time>2011-08-03T09:42:37Z</time>
      </trkpt>
      <trkpt lat="46.64807" lon="5.97261">
        <ele>800.4350586</ele>
        <time>2011-08-03T09:42:42Z</time>
      </trkpt>
      <trkpt lat="46.64813" lon="5.97267">
        <ele>802.3574219</ele>
        <time>2011-08-03T09:42:45Z</time>
      </trkpt>
      <trkpt lat="46.64824" lon="5.97253">
        <ele>803.7995605</ele>
        <time>2011-08-03T09:42:49Z</time>
      </trkpt>
      <trkpt lat="46.64834" lon="5.97239">
        <ele>803.3188477</ele>
        <time>2011-08-03T09:42:54Z</time>
      </trkpt>
      <trkpt lat="46.64847" lon="5.97234">
        <ele>802.3574219</ele>
        <time>2011-08-03T09:42:59Z</time>
      </trkpt>
      <trkpt lat="46.64857" lon="5.97244">
        <ele>800.9155273</ele>
        <time>2011-08-03T09:43:03Z</time>
      </trkpt>
      <trkpt lat="46.6487" lon="5.97254">
        <ele>799.9543457</ele>
        <time>2011-08-03T09:43:08Z</time>
      </trkpt>
      <trkpt lat="46.64882" lon="5.97265">
        <ele>800.4350586</ele>
        <time>2011-08-03T09:43:13Z</time>
      </trkpt>
      <trkpt lat="46.64892" lon="5.97269">
        <ele>799.9543457</ele>
        <time>2011-08-03T09:43:17Z</time>
      </trkpt>
      <trkpt lat="46.64909" lon="5.97274">
        <ele>800.4350586</ele>
        <time>2011-08-03T09:43:22Z</time>
      </trkpt>
      <trkpt lat="46.64912" lon="5.97274">
        <ele>800.4350586</ele>
        <time>2011-08-03T09:43:23Z</time>
      </trkpt>
      <trkpt lat="46.64928" lon="5.97277">
        <ele>800.9155273</ele>
        <time>2011-08-03T09:43:29Z</time>
      </trkpt>
      <trkpt lat="46.64943" lon="5.97284">
        <ele>802.8381348</ele>
        <time>2011-08-03T09:43:34Z</time>
      </trkpt>
      <trkpt lat="46.64946" lon="5.97286">
        <ele>803.3188477</ele>
        <time>2011-08-03T09:43:35Z</time>
      </trkpt>
      <trkpt lat="46.64955" lon="5.97286">
        <ele>805.722168</ele>
        <time>2011-08-03T09:43:39Z</time>
      </trkpt>
      <trkpt lat="46.64959" lon="5.97289">
        <ele>807.1640625</ele>
        <time>2011-08-03T09:43:41Z</time>
      </trkpt>
      <trkpt lat="46.64975" lon="5.97289">
        <ele>818.6999512</ele>
        <time>2011-08-03T09:43:47Z</time>
      </trkpt>
      <trkpt lat="46.64987" lon="5.97286">
        <ele>825.909668</ele>
        <time>2011-08-03T09:43:52Z</time>
      </trkpt>
      <trkpt lat="46.64993" lon="5.97284">
        <ele>829.2744141</ele>
        <time>2011-08-03T09:43:56Z</time>
      </trkpt>
      <trkpt lat="46.64998" lon="5.97281">
        <ele>830.7165527</ele>
        <time>2011-08-03T09:43:58Z</time>
      </trkpt>
      <trkpt lat="46.65013" lon="5.97267">
        <ele>832.6391602</ele>
        <time>2011-08-03T09:44:05Z</time>
      </trkpt>
      <trkpt lat="46.65022" lon="5.97262">
        <ele>832.6391602</ele>
        <time>2011-08-03T09:44:08Z</time>
      </trkpt>
      <trkpt lat="46.65022" lon="5.97262">
        <ele>832.6391602</ele>
        <time>2011-08-03T09:44:08Z</time>
      </trkpt>
      <trkpt lat="46.6502" lon="5.9726">
        <ele>832.1584473</ele>
        <time>2011-08-03T09:44:12Z</time>
      </trkpt>
      <trkpt lat="46.6501" lon="5.97263">
        <ele>833.1196289</ele>
        <time>2011-08-03T09:44:16Z</time>
      </trkpt>
      <trkpt lat="46.64995" lon="5.9726">
        <ele>832.6391602</ele>
        <time>2011-08-03T09:44:23Z</time>
      </trkpt>
      <trkpt lat="46.64985" lon="5.97253">
        <ele>826.8710938</ele>
        <time>2011-08-03T09:44:27Z</time>
      </trkpt>
      <trkpt lat="46.64971" lon="5.97248">
        <ele>823.5065918</ele>
        <time>2011-08-03T09:44:33Z</time>
      </trkpt>
      <trkpt lat="46.6496" lon="5.97242">
        <ele>820.6225586</ele>
        <time>2011-08-03T09:44:38Z</time>
      </trkpt>
      <trkpt lat="46.64949" lon="5.97236">
        <ele>820.6225586</ele>
        <time>2011-08-03T09:44:44Z</time>
      </trkpt>
      <trkpt lat="46.64937" lon="5.97223">
        <ele>818.2192383</ele>
        <time>2011-08-03T09:44:50Z</time>
      </trkpt>
      <trkpt lat="46.64929" lon="5.9721">
        <ele>818.6999512</ele>
        <time>2011-08-03T09:44:55Z</time>
      </trkpt>
      <trkpt lat="46.64923" lon="5.97201">
        <ele>818.6999512</ele>
        <time>2011-08-03T09:44:58Z</time>
      </trkpt>
      <trkpt lat="46.64914" lon="5.97186">
        <ele>819.1806641</ele>
        <time>2011-08-03T09:45:03Z</time>
      </trkpt>
      <trkpt lat="46.64905" lon="5.97172">
        <ele>821.5837402</ele>
        <time>2011-08-03T09:45:08Z</time>
      </trkpt>
      <trkpt lat="46.64895" lon="5.97157">
        <ele>823.5065918</ele>
        <time>2011-08-03T09:45:13Z</time>
      </trkpt>
      <trkpt lat="46.64888" lon="5.97145">
        <ele>824.9484863</ele>
        <time>2011-08-03T09:45:17Z</time>
      </trkpt>
      <trkpt lat="46.64879" lon="5.9713">
        <ele>826.3903809</ele>
        <time>2011-08-03T09:45:22Z</time>
      </trkpt>
      <trkpt lat="46.64868" lon="5.97112">
        <ele>827.3518066</ele>
        <time>2011-08-03T09:45:28Z</time>
      </trkpt>
      <trkpt lat="46.64862" lon="5.97099">
        <ele>826.8710938</ele>
        <time>2011-08-03T09:45:32Z</time>
      </trkpt>
      <trkpt lat="46.64856" lon="5.97084">
        <ele>826.3903809</ele>
        <time>2011-08-03T09:45:36Z</time>
      </trkpt>
      <trkpt lat="46.64852" lon="5.97071">
        <ele>825.909668</ele>
        <time>2011-08-03T09:45:40Z</time>
      </trkpt>
      <trkpt lat="46.64849" lon="5.97057">
        <ele>825.909668</ele>
        <time>2011-08-03T09:45:44Z</time>
      </trkpt>
      <trkpt lat="46.64841" lon="5.97041">
        <ele>825.909668</ele>
        <time>2011-08-03T09:45:50Z</time>
      </trkpt>
      <trkpt lat="46.64831" lon="5.97028">
        <ele>823.9870605</ele>
        <time>2011-08-03T09:45:56Z</time>
      </trkpt>
      <trkpt lat="46.64819" lon="5.9702">
        <ele>825.4289551</ele>
        <time>2011-08-03T09:46:01Z</time>
      </trkpt>
      <trkpt lat="46.64808" lon="5.97014">
        <ele>824.4677734</ele>
        <time>2011-08-03T09:46:05Z</time>
      </trkpt>
      <trkpt lat="46.64799" lon="5.97006">
        <ele>823.0258789</ele>
        <time>2011-08-03T09:46:10Z</time>
      </trkpt>
      <trkpt lat="46.64797" lon="5.97005">
        <ele>823.0258789</ele>
        <time>2011-08-03T09:46:11Z</time>
      </trkpt>
      <trkpt lat="46.64784" lon="5.9699">
        <ele>819.661377</ele>
        <time>2011-08-03T09:46:17Z</time>
      </trkpt>
      <trkpt lat="46.64772" lon="5.96975">
        <ele>819.661377</ele>
        <time>2011-08-03T09:46:23Z</time>
      </trkpt>
      <trkpt lat="46.64765" lon="5.96963">
        <ele>821.1032715</ele>
        <time>2011-08-03T09:46:27Z</time>
      </trkpt>
      <trkpt lat="46.64758" lon="5.96946">
        <ele>820.1418457</ele>
        <time>2011-08-03T09:46:32Z</time>
      </trkpt>
      <trkpt lat="46.64749" lon="5.96928">
        <ele>820.1418457</ele>
        <time>2011-08-03T09:46:37Z</time>
      </trkpt>
      <trkpt lat="46.64744" lon="5.96911">
        <ele>821.1032715</ele>
        <time>2011-08-03T09:46:41Z</time>
      </trkpt>
      <trkpt lat="46.64744" lon="5.96901">
        <ele>820.6225586</ele>
        <time>2011-08-03T09:46:43Z</time>
      </trkpt>
      <trkpt lat="46.64738" lon="5.96886">
        <ele>820.6225586</ele>
        <time>2011-08-03T09:46:47Z</time>
      </trkpt>
      <trkpt lat="46.64731" lon="5.96866">
        <ele>820.6225586</ele>
        <time>2011-08-03T09:46:52Z</time>
      </trkpt>
      <trkpt lat="46.64729" lon="5.96858">
        <ele>820.1418457</ele>
        <time>2011-08-03T09:46:54Z</time>
      </trkpt>
      <trkpt lat="46.64724" lon="5.96842">
        <ele>820.1418457</ele>
        <time>2011-08-03T09:46:59Z</time>
      </trkpt>
      <trkpt lat="46.64724" lon="5.96837">
        <ele>819.661377</ele>
        <time>2011-08-03T09:47:01Z</time>
      </trkpt>
      <trkpt lat="46.64722" lon="5.96818">
        <ele>816.2966309</ele>
        <time>2011-08-03T09:47:06Z</time>
      </trkpt>
      <trkpt lat="46.64723" lon="5.96802">
        <ele>815.8161621</ele>
        <time>2011-08-03T09:47:10Z</time>
      </trkpt>
      <trkpt lat="46.64723" lon="5.96795">
        <ele>815.3354492</ele>
        <time>2011-08-03T09:47:12Z</time>
      </trkpt>
      <trkpt lat="46.64726" lon="5.9677">
        <ele>816.7773438</ele>
        <time>2011-08-03T09:47:18Z</time>
      </trkpt>
      <trkpt lat="46.64727" lon="5.96766">
        <ele>817.7385254</ele>
        <time>2011-08-03T09:47:19Z</time>
      </trkpt>
      <trkpt lat="46.64729" lon="5.9674">
        <ele>822.545166</ele>
        <time>2011-08-03T09:47:25Z</time>
      </trkpt>
      <trkpt lat="46.64729" lon="5.96719">
        <ele>826.3903809</ele>
        <time>2011-08-03T09:47:30Z</time>
      </trkpt>
      <trkpt lat="46.6473" lon="5.96715">
        <ele>827.3518066</ele>
        <time>2011-08-03T09:47:31Z</time>
      </trkpt>
      <trkpt lat="46.64729" lon="5.96699">
        <ele>832.1584473</ele>
        <time>2011-08-03T09:47:36Z</time>
      </trkpt>
      <trkpt lat="46.64721" lon="5.96682">
        <ele>832.1584473</ele>
        <time>2011-08-03T09:47:42Z</time>
      </trkpt>
      <trkpt lat="46.64713" lon="5.96673">
        <ele>836.0036621</ele>
        <time>2011-08-03T09:47:46Z</time>
      </trkpt>
      <trkpt lat="46.64702" lon="5.96668">
        <ele>836.9648438</ele>
        <time>2011-08-03T09:47:51Z</time>
      </trkpt>
      <trkpt lat="46.64697" lon="5.96666">
        <ele>836.9648438</ele>
        <time>2011-08-03T09:47:53Z</time>
      </trkpt>
      <trkpt lat="46.64686" lon="5.96663">
        <ele>837.9262695</ele>
        <time>2011-08-03T09:47:57Z</time>
      </trkpt>
      <trkpt lat="46.64674" lon="5.96659">
        <ele>836.9648438</ele>
        <time>2011-08-03T09:48:02Z</time>
      </trkpt>
      <trkpt lat="46.6466" lon="5.96647">
        <ele>831.1972656</ele>
        <time>2011-08-03T09:48:07Z</time>
      </trkpt>
      <trkpt lat="46.64651" lon="5.96637">
        <ele>827.8322754</ele>
        <time>2011-08-03T09:48:11Z</time>
      </trkpt>
      <trkpt lat="46.64645" lon="5.96631">
        <ele>826.3903809</ele>
        <time>2011-08-03T09:48:14Z</time>
      </trkpt>
      <trkpt lat="46.64636" lon="5.96613">
        <ele>825.4289551</ele>
        <time>2011-08-03T09:48:20Z</time>
      </trkpt>
      <trkpt lat="46.64631" lon="5.966">
        <ele>826.3903809</ele>
        <time>2011-08-03T09:48:24Z</time>
      </trkpt>
      <trkpt lat="46.64624" lon="5.96581">
        <ele>829.755127</ele>
        <time>2011-08-03T09:48:30Z</time>
      </trkpt>
      <trkpt lat="46.6462" lon="5.96568">
        <ele>828.7939453</ele>
        <time>2011-08-03T09:48:34Z</time>
      </trkpt>
      <trkpt lat="46.64616" lon="5.96557">
        <ele>824.9484863</ele>
        <time>2011-08-03T09:48:38Z</time>
      </trkpt>
      <trkpt lat="46.64607" lon="5.96532">
        <ele>827.8322754</ele>
        <time>2011-08-03T09:48:44Z</time>
      </trkpt>
      <trkpt lat="46.64604" lon="5.9652">
        <ele>828.3132324</ele>
        <time>2011-08-03T09:48:48Z</time>
      </trkpt>
      <trkpt lat="46.64595" lon="5.965">
        <ele>826.8710938</ele>
        <time>2011-08-03T09:48:54Z</time>
      </trkpt>
      <trkpt lat="46.64594" lon="5.96497">
        <ele>827.3518066</ele>
        <time>2011-08-03T09:48:55Z</time>
      </trkpt>
      <trkpt lat="46.64582" lon="5.96479">
        <ele>833.6003418</ele>
        <time>2011-08-03T09:49:01Z</time>
      </trkpt>
      <trkpt lat="46.64569" lon="5.96466">
        <ele>835.0424805</ele>
        <time>2011-08-03T09:49:07Z</time>
      </trkpt>
      <trkpt lat="46.64558" lon="5.96455">
        <ele>835.5229492</ele>
        <time>2011-08-03T09:49:13Z</time>
      </trkpt>
      <trkpt lat="46.64556" lon="5.96453">
        <ele>835.0424805</ele>
        <time>2011-08-03T09:49:14Z</time>
      </trkpt>
      <trkpt lat="46.64542" lon="5.96442">
        <ele>836.484375</ele>
        <time>2011-08-03T09:49:20Z</time>
      </trkpt>
      <trkpt lat="46.6454" lon="5.96439">
        <ele>836.484375</ele>
        <time>2011-08-03T09:49:21Z</time>
      </trkpt>
      <trkpt lat="46.64528" lon="5.96423">
        <ele>838.4069824</ele>
        <time>2011-08-03T09:49:27Z</time>
      </trkpt>
      <trkpt lat="46.64522" lon="5.96408">
        <ele>838.8876953</ele>
        <time>2011-08-03T09:49:32Z</time>
      </trkpt>
      <trkpt lat="46.64515" lon="5.9639">
        <ele>838.8876953</ele>
        <time>2011-08-03T09:49:37Z</time>
      </trkpt>
      <trkpt lat="46.64509" lon="5.96372">
        <ele>839.3681641</ele>
        <time>2011-08-03T09:49:42Z</time>
      </trkpt>
      <trkpt lat="46.645" lon="5.96353">
        <ele>839.3681641</ele>
        <time>2011-08-03T09:49:47Z</time>
      </trkpt>
      <trkpt lat="46.64496" lon="5.9634">
        <ele>839.848877</ele>
        <time>2011-08-03T09:49:51Z</time>
      </trkpt>
      <trkpt lat="46.64489" lon="5.96327">
        <ele>839.3681641</ele>
        <time>2011-08-03T09:49:55Z</time>
      </trkpt>
      <trkpt lat="46.64478" lon="5.96306">
        <ele>838.8876953</ele>
        <time>2011-08-03T09:50:01Z</time>
      </trkpt>
      <trkpt lat="46.64474" lon="5.96287">
        <ele>837.4455566</ele>
        <time>2011-08-03T09:50:07Z</time>
      </trkpt>
      <trkpt lat="46.6447" lon="5.96272">
        <ele>836.0036621</ele>
        <time>2011-08-03T09:50:12Z</time>
      </trkpt>
      <trkpt lat="46.64464" lon="5.96256">
        <ele>836.484375</ele>
        <time>2011-08-03T09:50:17Z</time>
      </trkpt>
      <trkpt lat="46.64457" lon="5.96235">
        <ele>837.9262695</ele>
        <time>2011-08-03T09:50:22Z</time>
      </trkpt>
      <trkpt lat="46.64452" lon="5.96219">
        <ele>836.9648438</ele>
        <time>2011-08-03T09:50:27Z</time>
      </trkpt>
      <trkpt lat="46.64451" lon="5.96211">
        <ele>835.5229492</ele>
        <time>2011-08-03T09:50:29Z</time>
      </trkpt>
      <trkpt lat="46.64447" lon="5.96195">
        <ele>835.0424805</ele>
        <time>2011-08-03T09:50:34Z</time>
      </trkpt>
      <trkpt lat="46.6444" lon="5.96173">
        <ele>836.484375</ele>
        <time>2011-08-03T09:50:40Z</time>
      </trkpt>
      <trkpt lat="46.64438" lon="5.96165">
        <ele>836.484375</ele>
        <time>2011-08-03T09:50:42Z</time>
      </trkpt>
      <trkpt lat="46.64434" lon="5.96147">
        <ele>837.4455566</ele>
        <time>2011-08-03T09:50:47Z</time>
      </trkpt>
      <trkpt lat="46.64432" lon="5.96135">
        <ele>837.4455566</ele>
        <time>2011-08-03T09:50:50Z</time>
      </trkpt>
      <trkpt lat="46.64425" lon="5.96113">
        <ele>837.9262695</ele>
        <time>2011-08-03T09:50:56Z</time>
      </trkpt>
      <trkpt lat="46.64422" lon="5.96101">
        <ele>837.9262695</ele>
        <time>2011-08-03T09:51:00Z</time>
      </trkpt>
      <trkpt lat="46.64418" lon="5.96082">
        <ele>838.4069824</ele>
        <time>2011-08-03T09:51:05Z</time>
      </trkpt>
      <trkpt lat="46.64414" lon="5.9607">
        <ele>839.3681641</ele>
        <time>2011-08-03T09:51:09Z</time>
      </trkpt>
      <trkpt lat="46.64409" lon="5.96054">
        <ele>839.848877</ele>
        <time>2011-08-03T09:51:13Z</time>
      </trkpt>
      <trkpt lat="46.64404" lon="5.96039">
        <ele>840.3295898</ele>
        <time>2011-08-03T09:51:17Z</time>
      </trkpt>
      <trkpt lat="46.64398" lon="5.96017">
        <ele>841.7714844</ele>
        <time>2011-08-03T09:51:23Z</time>
      </trkpt>
      <trkpt lat="46.64394" lon="5.96007">
        <ele>841.2907715</ele>
        <time>2011-08-03T09:51:26Z</time>
      </trkpt>
      <trkpt lat="46.64387" lon="5.95993">
        <ele>842.2521973</ele>
        <time>2011-08-03T09:51:30Z</time>
      </trkpt>
      <trkpt lat="46.64381" lon="5.95975">
        <ele>842.7329102</ele>
        <time>2011-08-03T09:51:35Z</time>
      </trkpt>
      <trkpt lat="46.64376" lon="5.95957">
        <ele>842.2521973</ele>
        <time>2011-08-03T09:51:40Z</time>
      </trkpt>
      <trkpt lat="46.64371" lon="5.95938">
        <ele>842.2521973</ele>
        <time>2011-08-03T09:51:45Z</time>
      </trkpt>
      <trkpt lat="46.64366" lon="5.95923">
        <ele>843.6940918</ele>
        <time>2011-08-03T09:51:49Z</time>
      </trkpt>
      <trkpt lat="46.64359" lon="5.95902">
        <ele>843.2133789</ele>
        <time>2011-08-03T09:51:54Z</time>
      </trkpt>
      <trkpt lat="46.64357" lon="5.95879">
        <ele>842.7329102</ele>
        <time>2011-08-03T09:51:59Z</time>
      </trkpt>
      <trkpt lat="46.64352" lon="5.95859">
        <ele>841.7714844</ele>
        <time>2011-08-03T09:52:04Z</time>
      </trkpt>
      <trkpt lat="46.64347" lon="5.95835">
        <ele>840.3295898</ele>
        <time>2011-08-03T09:52:10Z</time>
      </trkpt>
      <trkpt lat="46.64345" lon="5.95828">
        <ele>839.3681641</ele>
        <time>2011-08-03T09:52:12Z</time>
      </trkpt>
      <trkpt lat="46.64343" lon="5.95808">
        <ele>836.484375</ele>
        <time>2011-08-03T09:52:17Z</time>
      </trkpt>
      <trkpt lat="46.64337" lon="5.95783">
        <ele>833.1196289</ele>
        <time>2011-08-03T09:52:23Z</time>
      </trkpt>
      <trkpt lat="46.64333" lon="5.95767">
        <ele>833.6003418</ele>
        <time>2011-08-03T09:52:27Z</time>
      </trkpt>
      <trkpt lat="46.64325" lon="5.95744">
        <ele>835.0424805</ele>
        <time>2011-08-03T09:52:32Z</time>
      </trkpt>
      <trkpt lat="46.6432" lon="5.9573">
        <ele>834.5617676</ele>
        <time>2011-08-03T09:52:36Z</time>
      </trkpt>
      <trkpt lat="46.64314" lon="5.9571">
        <ele>832.6391602</ele>
        <time>2011-08-03T09:52:41Z</time>
      </trkpt>
      <trkpt lat="46.6431" lon="5.95702">
        <ele>830.7165527</ele>
        <time>2011-08-03T09:52:43Z</time>
      </trkpt>
      <trkpt lat="46.64305" lon="5.95683">
        <ele>829.2744141</ele>
        <time>2011-08-03T09:52:48Z</time>
      </trkpt>
      <trkpt lat="46.64298" lon="5.95668">
        <ele>827.3518066</ele>
        <time>2011-08-03T09:52:52Z</time>
      </trkpt>
      <trkpt lat="46.6429" lon="5.9565">
        <ele>826.3903809</ele>
        <time>2011-08-03T09:52:57Z</time>
      </trkpt>
      <trkpt lat="46.64284" lon="5.95638">
        <ele>825.4289551</ele>
        <time>2011-08-03T09:53:01Z</time>
      </trkpt>
      <trkpt lat="46.6428" lon="5.95622">
        <ele>823.9870605</ele>
        <time>2011-08-03T09:53:05Z</time>
      </trkpt>
      <trkpt lat="46.64276" lon="5.95599">
        <ele>820.6225586</ele>
        <time>2011-08-03T09:53:10Z</time>
      </trkpt>
      <trkpt lat="46.64272" lon="5.95577">
        <ele>817.2580566</ele>
        <time>2011-08-03T09:53:15Z</time>
      </trkpt>
      <trkpt lat="46.64269" lon="5.95555">
        <ele>814.8547363</ele>
        <time>2011-08-03T09:53:20Z</time>
      </trkpt>
      <trkpt lat="46.64264" lon="5.95537">
        <ele>815.8161621</ele>
        <time>2011-08-03T09:53:24Z</time>
      </trkpt>
      <trkpt lat="46.64261" lon="5.95523">
        <ele>815.3354492</ele>
        <time>2011-08-03T09:53:27Z</time>
      </trkpt>
      <trkpt lat="46.64256" lon="5.95498">
        <ele>816.7773438</ele>
        <time>2011-08-03T09:53:32Z</time>
      </trkpt>
      <trkpt lat="46.64253" lon="5.95491">
        <ele>817.2580566</ele>
        <time>2011-08-03T09:53:34Z</time>
      </trkpt>
      <trkpt lat="46.64247" lon="5.95469">
        <ele>818.6999512</ele>
        <time>2011-08-03T09:53:39Z</time>
      </trkpt>
      <trkpt lat="46.64241" lon="5.95453">
        <ele>820.6225586</ele>
        <time>2011-08-03T09:53:43Z</time>
      </trkpt>
      <trkpt lat="46.64233" lon="5.95436">
        <ele>822.0644531</ele>
        <time>2011-08-03T09:53:48Z</time>
      </trkpt>
      <trkpt lat="46.64228" lon="5.95423">
        <ele>821.1032715</ele>
        <time>2011-08-03T09:53:52Z</time>
      </trkpt>
      <trkpt lat="46.64221" lon="5.95408">
        <ele>820.1418457</ele>
        <time>2011-08-03T09:53:56Z</time>
      </trkpt>
      <trkpt lat="46.64213" lon="5.95386">
        <ele>819.661377</ele>
        <time>2011-08-03T09:54:01Z</time>
      </trkpt>
      <trkpt lat="46.64208" lon="5.95368">
        <ele>818.6999512</ele>
        <time>2011-08-03T09:54:06Z</time>
      </trkpt>
      <trkpt lat="46.64203" lon="5.95345">
        <ele>811.4899902</ele>
        <time>2011-08-03T09:54:11Z</time>
      </trkpt>
      <trkpt lat="46.642" lon="5.95328">
        <ele>809.0866699</ele>
        <time>2011-08-03T09:54:15Z</time>
      </trkpt>
      <trkpt lat="46.64197" lon="5.95316">
        <ele>808.605957</ele>
        <time>2011-08-03T09:54:18Z</time>
      </trkpt>
      <trkpt lat="46.64192" lon="5.95297">
        <ele>808.605957</ele>
        <time>2011-08-03T09:54:22Z</time>
      </trkpt>
      <trkpt lat="46.6419" lon="5.95284">
        <ele>807.6447754</ele>
        <time>2011-08-03T09:54:25Z</time>
      </trkpt>
      <trkpt lat="46.64187" lon="5.95295">
        <ele>805.2414551</ele>
        <time>2011-08-03T09:54:30Z</time>
      </trkpt>
      <trkpt lat="46.64184" lon="5.95313">
        <ele>803.3188477</ele>
        <time>2011-08-03T09:54:34Z</time>
      </trkpt>
      <trkpt lat="46.6418" lon="5.95339">
        <ele>796.5898438</ele>
        <time>2011-08-03T09:54:40Z</time>
      </trkpt>
      <trkpt lat="46.64168" lon="5.95366">
        <ele>791.3022461</ele>
        <time>2011-08-03T09:54:46Z</time>
      </trkpt>
      <trkpt lat="46.64152" lon="5.95389">
        <ele>786.9763184</ele>
        <time>2011-08-03T09:54:52Z</time>
      </trkpt>
      <trkpt lat="46.64143" lon="5.9541">
        <ele>784.0925293</ele>
        <time>2011-08-03T09:54:57Z</time>
      </trkpt>
      <trkpt lat="46.64134" lon="5.95428">
        <ele>781.2087402</ele>
        <time>2011-08-03T09:55:02Z</time>
      </trkpt>
      <trkpt lat="46.64127" lon="5.95447">
        <ele>778.8051758</ele>
        <time>2011-08-03T09:55:07Z</time>
      </trkpt>
      <trkpt lat="46.6412" lon="5.95464">
        <ele>776.8825684</ele>
        <time>2011-08-03T09:55:11Z</time>
      </trkpt>
      <trkpt lat="46.64109" lon="5.95481">
        <ele>775.4404297</ele>
        <time>2011-08-03T09:55:16Z</time>
      </trkpt>
      <trkpt lat="46.64098" lon="5.95493">
        <ele>773.0373535</ele>
        <time>2011-08-03T09:55:20Z</time>
      </trkpt>
      <trkpt lat="46.64086" lon="5.95505">
        <ele>769.6728516</ele>
        <time>2011-08-03T09:55:24Z</time>
      </trkpt>
      <trkpt lat="46.64072" lon="5.95517">
        <ele>766.3081055</ele>
        <time>2011-08-03T09:55:29Z</time>
      </trkpt>
      <trkpt lat="46.64056" lon="5.95524">
        <ele>764.385498</ele>
        <time>2011-08-03T09:55:34Z</time>
      </trkpt>
      <trkpt lat="46.64044" lon="5.95528">
        <ele>761.9821777</ele>
        <time>2011-08-03T09:55:38Z</time>
      </trkpt>
      <trkpt lat="46.64039" lon="5.9553">
        <ele>761.5014648</ele>
        <time>2011-08-03T09:55:40Z</time>
      </trkpt>
      <trkpt lat="46.64034" lon="5.95548">
        <ele>761.9821777</ele>
        <time>2011-08-03T09:55:45Z</time>
      </trkpt>
      <trkpt lat="46.64035" lon="5.95561">
        <ele>761.9821777</ele>
        <time>2011-08-03T09:55:48Z</time>
      </trkpt>
      <trkpt lat="46.64027" lon="5.95574">
        <ele>761.5014648</ele>
        <time>2011-08-03T09:55:52Z</time>
      </trkpt>
      <trkpt lat="46.64016" lon="5.95581">
        <ele>761.020752</ele>
        <time>2011-08-03T09:55:55Z</time>
      </trkpt>
      <trkpt lat="46.63987" lon="5.95595">
        <ele>757.1755371</ele>
        <time>2011-08-03T09:56:03Z</time>
      </trkpt>
      <trkpt lat="46.63969" lon="5.95604">
        <ele>753.8110352</ele>
        <time>2011-08-03T09:56:09Z</time>
      </trkpt>
      <trkpt lat="46.63956" lon="5.95607">
        <ele>752.3688965</ele>
        <time>2011-08-03T09:56:13Z</time>
      </trkpt>
      <trkpt lat="46.63942" lon="5.95614">
        <ele>751.8884277</ele>
        <time>2011-08-03T09:56:17Z</time>
      </trkpt>
      <trkpt lat="46.63936" lon="5.95615">
        <ele>750.927002</ele>
        <time>2011-08-03T09:56:19Z</time>
      </trkpt>
      <trkpt lat="46.63927" lon="5.95601">
        <ele>749.4851074</ele>
        <time>2011-08-03T09:56:23Z</time>
      </trkpt>
      <trkpt lat="46.63921" lon="5.95577">
        <ele>749.4851074</ele>
        <time>2011-08-03T09:56:28Z</time>
      </trkpt>
      <trkpt lat="46.63916" lon="5.95558">
        <ele>749.4851074</ele>
        <time>2011-08-03T09:56:32Z</time>
      </trkpt>
      <trkpt lat="46.6391" lon="5.95544">
        <ele>749.9658203</ele>
        <time>2011-08-03T09:56:35Z</time>
      </trkpt>
      <trkpt lat="46.63902" lon="5.95523">
        <ele>747.5622559</ele>
        <time>2011-08-03T09:56:39Z</time>
      </trkpt>
      <trkpt lat="46.63898" lon="5.95506">
        <ele>747.081543</ele>
        <time>2011-08-03T09:56:43Z</time>
      </trkpt>
      <trkpt lat="46.63893" lon="5.95484">
        <ele>747.081543</ele>
        <time>2011-08-03T09:56:48Z</time>
      </trkpt>
      <trkpt lat="46.63889" lon="5.95466">
        <ele>747.5622559</ele>
        <time>2011-08-03T09:56:52Z</time>
      </trkpt>
      <trkpt lat="46.63883" lon="5.95448">
        <ele>747.5622559</ele>
        <time>2011-08-03T09:56:56Z</time>
      </trkpt>
      <trkpt lat="46.63878" lon="5.95424">
        <ele>748.5236816</ele>
        <time>2011-08-03T09:57:01Z</time>
      </trkpt>
      <trkpt lat="46.63872" lon="5.95402">
        <ele>749.0043945</ele>
        <time>2011-08-03T09:57:06Z</time>
      </trkpt>
      <trkpt lat="46.63867" lon="5.95384">
        <ele>749.0043945</ele>
        <time>2011-08-03T09:57:10Z</time>
      </trkpt>
      <trkpt lat="46.63861" lon="5.95362">
        <ele>749.4851074</ele>
        <time>2011-08-03T09:57:15Z</time>
      </trkpt>
      <trkpt lat="46.63861" lon="5.95346">
        <ele>749.0043945</ele>
        <time>2011-08-03T09:57:19Z</time>
      </trkpt>
      <trkpt lat="46.63858" lon="5.95318">
        <ele>749.0043945</ele>
        <time>2011-08-03T09:57:25Z</time>
      </trkpt>
      <trkpt lat="46.63858" lon="5.95314">
        <ele>749.0043945</ele>
        <time>2011-08-03T09:57:26Z</time>
      </trkpt>
      <trkpt lat="46.63857" lon="5.95301">
        <ele>748.5236816</ele>
        <time>2011-08-03T09:57:29Z</time>
      </trkpt>
    </trkseg>
  </trk>
</gpx>